createdAt,value
2023-01-02T00:00:44.025Z,7.00
2023-01-02T00:03:47.412Z,6.90
2023-01-02T00:06:50.767Z,6.80
2023-01-02T00:09:54.004Z,6.80
2023-01-02T00:12:58.544Z,6.70
2023-01-02T00:16:02.014Z,6.60
2023-01-02T00:19:05.427Z,6.50
2023-01-02T00:22:08.672Z,6.50
2023-01-02T00:25:12.145Z,6.40
2023-01-02T00:28:16.814Z,6.40
2023-01-02T00:31:20.127Z,6.40
2023-01-02T00:34:23.380Z,6.40
2023-01-02T00:37:26.681Z,6.50
2023-01-02T00:40:29.886Z,6.40
2023-01-02T00:43:34.896Z,6.40
2023-01-02T00:46:38.141Z,6.30
2023-01-02T00:49:41.454Z,6.30
2023-01-02T00:52:44.679Z,6.40
2023-01-02T00:55:48.296Z,6.50
2023-01-02T00:58:53.252Z,6.50
2023-01-02T01:01:56.506Z,6.50
2023-01-02T01:04:59.699Z,6.40
2023-01-02T01:08:02.875Z,6.40
2023-01-02T01:11:07.603Z,6.40
2023-01-02T01:14:12.660Z,6.30
2023-01-02T01:17:15.775Z,6.30
2023-01-02T01:20:19.161Z,6.30
2023-01-02T01:23:23.155Z,6.20
2023-01-02T01:26:26.638Z,6.20
2023-01-02T01:29:31.238Z,6.30
2023-01-02T01:32:34.567Z,6.30
2023-01-02T01:35:37.943Z,6.40
2023-01-02T01:38:42.018Z,6.30
2023-01-02T01:41:45.176Z,6.30
2023-01-02T01:44:51.490Z,6.30
2023-01-02T01:47:57.657Z,6.20
2023-01-02T01:51:01.230Z,6.20
2023-01-02T01:54:08.577Z,6.30
2023-01-02T01:57:15.909Z,6.40
2023-01-02T02:00:20.675Z,6.30
2023-01-02T02:03:28.259Z,6.30
2023-01-02T02:06:31.535Z,6.30
2023-01-02T02:09:40.098Z,6.20
2023-01-02T02:12:43.341Z,6.40
2023-01-02T02:15:54.971Z,6.30
2023-01-02T02:19:19.295Z,6.30
2023-01-02T02:22:47.146Z,6.30
2023-01-02T02:26:09.456Z,6.30
2023-01-02T02:29:34.877Z,6.30
2023-01-02T02:33:04.504Z,6.30
2023-01-02T02:36:15.202Z,6.30
2023-01-02T02:39:26.495Z,6.50
2023-01-02T02:42:40.621Z,6.60
2023-01-02T02:45:49.840Z,6.70
2023-01-02T02:49:00.363Z,6.80
2023-01-02T02:52:11.807Z,6.80
2023-01-02T02:55:18.124Z,6.90
2023-01-02T02:58:23.469Z,6.90
2023-01-02T03:01:31.116Z,7.00
2023-01-02T03:07:47.860Z,7.00
2023-01-02T03:10:57.684Z,7.00
2023-01-02T03:14:07.019Z,7.10
2023-01-02T03:17:20.457Z,7.10
2023-01-02T03:20:29.994Z,7.10
2023-01-02T03:23:37.835Z,7.10
2023-01-02T03:26:44.985Z,7.20
2023-01-02T03:29:53.530Z,7.20
2023-01-02T03:32:59.643Z,7.20
2023-01-02T03:36:10.530Z,7.20
2023-01-02T03:39:17.667Z,7.20
2023-01-02T03:42:26.534Z,7.30
2023-01-02T03:45:32.539Z,7.30
2023-01-02T03:48:41.666Z,7.30
2023-01-02T03:51:46.325Z,7.40
2023-01-02T03:54:50.262Z,7.40
2023-01-02T03:58:01.244Z,7.30
2023-01-02T04:01:09.770Z,7.20
2023-01-02T04:04:18.949Z,7.20
2023-01-02T04:07:28.689Z,7.20
2023-01-02T04:10:32.889Z,7.00
2023-01-02T04:13:41.467Z,7.10
2023-01-02T04:16:47.237Z,7.00
2023-01-02T04:19:54.924Z,6.90
2023-01-02T04:23:04.462Z,6.90
2023-01-02T04:26:11.516Z,6.90
2023-01-02T04:29:16.574Z,6.90
2023-01-02T04:32:24.345Z,6.80
2023-01-02T04:35:30.925Z,6.80
2023-01-02T04:38:35.544Z,6.80
2023-01-02T04:41:40.223Z,6.80
2023-01-02T04:44:43.425Z,6.90
2023-01-02T04:47:48.558Z,6.90
2023-01-02T04:50:51.730Z,6.80
2023-01-02T04:53:56.302Z,6.70
2023-01-02T04:57:02.956Z,6.70
2023-01-02T05:00:08.815Z,6.60
2023-01-02T05:03:12.173Z,6.50
2023-01-02T05:06:16.301Z,6.40
2023-01-02T05:12:24.244Z,6.30
2023-01-02T05:15:27.769Z,6.30
2023-01-02T05:18:31.358Z,6.30
2023-01-02T05:21:52.105Z,6.20
2023-01-02T05:24:56.646Z,6.20
2023-01-02T05:28:00.007Z,6.30
2023-01-02T05:31:03.324Z,6.30
2023-01-02T05:34:06.492Z,6.30
2023-01-02T05:37:09.609Z,6.30
2023-01-02T05:40:14.411Z,6.30
2023-01-02T05:43:17.524Z,6.30
2023-01-02T05:46:22.014Z,6.10
2023-01-02T05:49:26.858Z,6.20
2023-01-02T05:52:29.993Z,6.20
2023-01-02T05:55:34.500Z,6.20
2023-01-02T05:58:40.084Z,6.20
2023-01-02T06:01:43.487Z,6.20
2023-01-02T06:04:46.770Z,6.30
2023-01-02T06:07:49.949Z,6.30
2023-01-02T06:10:54.508Z,6.30
2023-01-02T06:13:57.911Z,6.30
2023-01-02T06:17:01.262Z,6.10
2023-01-02T06:20:04.945Z,6.00
2023-01-02T06:23:08.347Z,6.00
2023-01-02T06:26:15.047Z,6.00
2023-01-02T06:29:18.242Z,6.10
2023-01-02T06:32:21.483Z,6.20
2023-01-02T06:35:25.314Z,6.00
2023-01-02T06:38:28.988Z,6.00
2023-01-02T06:41:33.999Z,5.90
2023-01-02T06:44:37.138Z,5.90
2023-01-02T06:47:40.360Z,6.00
2023-01-02T06:50:44.930Z,5.90
2023-01-02T06:53:48.593Z,5.70
2023-01-02T06:56:53.251Z,5.70
2023-01-02T06:59:56.612Z,5.60
2023-01-02T07:03:00.539Z,5.70
2023-01-02T07:06:04.799Z,6.80
2023-01-02T07:09:08.095Z,5.70
2023-01-02T07:12:12.734Z,5.80
2023-01-02T07:15:16.143Z,5.80
2023-01-02T07:18:20.284Z,5.90
2023-01-02T07:21:24.230Z,6.20
2023-01-02T07:24:27.563Z,6.30
2023-01-02T07:27:32.742Z,6.40
2023-01-02T07:30:35.985Z,6.60
2023-01-02T07:33:39.434Z,6.70
2023-01-02T07:36:43.125Z,6.90
2023-01-02T07:39:46.516Z,7.10
2023-01-02T07:42:51.333Z,7.30
2023-01-02T07:45:54.624Z,7.30
2023-01-02T07:48:57.983Z,7.40
2023-01-02T07:52:01.434Z,7.40
2023-01-02T07:55:05.229Z,7.50
2023-01-02T07:58:10.012Z,7.50
2023-01-02T08:01:14.646Z,7.60
2023-01-02T08:04:18.237Z,7.50
2023-01-02T08:07:23.145Z,7.60
2023-01-02T08:10:26.360Z,7.70
2023-01-02T08:13:30.921Z,7.80
2023-01-02T08:16:34.260Z,7.90
2023-01-02T08:19:37.601Z,7.90
2023-01-02T08:22:40.840Z,8.00
2023-01-02T08:25:44.095Z,8.20
2023-01-02T08:28:48.806Z,8.30
2023-01-02T08:31:52.027Z,8.40
2023-01-02T08:34:55.572Z,8.50
2023-01-02T08:37:58.763Z,8.60
2023-01-02T08:41:02.224Z,8.60
2023-01-02T08:44:07.394Z,8.80
2023-01-02T08:47:10.738Z,8.80
2023-01-02T08:50:14.781Z,8.90
2023-01-02T08:53:18.336Z,9.00
2023-01-02T08:56:24.109Z,9.10
2023-01-02T08:59:29.863Z,9.20
2023-01-02T09:02:33.767Z,9.30
2023-01-02T09:05:37.222Z,9.40
2023-01-02T09:08:40.709Z,9.50
2023-01-02T09:11:49.027Z,9.60
2023-01-02T09:14:53.676Z,9.70
2023-01-02T09:17:57.039Z,9.80
2023-01-02T09:21:00.345Z,9.90
2023-01-02T09:24:03.645Z,10.00
2023-01-02T09:27:06.843Z,10.10
2023-01-02T09:30:12.577Z,10.20
2023-01-02T09:33:16.398Z,10.30
2023-01-02T09:36:21.220Z,10.30
2023-01-02T09:39:30.288Z,10.30
2023-01-02T09:42:35.566Z,10.30
2023-01-02T09:45:43.978Z,10.50
2023-01-02T09:48:47.239Z,10.50
2023-01-02T09:51:51.317Z,10.50
2023-01-02T09:54:54.968Z,10.50
2023-01-02T09:58:05.953Z,10.50
2023-01-02T10:01:17.894Z,10.60
2023-01-02T10:04:30.141Z,10.70
2023-01-02T10:07:43.811Z,10.60
2023-01-02T10:10:53.595Z,10.70
2023-01-02T10:14:18.635Z,10.60
2023-01-02T10:17:27.085Z,10.60
2023-01-02T10:20:37.019Z,10.70
2023-01-02T10:23:46.373Z,10.70
2023-01-02T10:26:53.979Z,10.80
2023-01-02T10:30:07.281Z,10.90
2023-01-02T10:33:19.629Z,11.00
2023-01-02T10:36:29.027Z,11.00
2023-01-02T10:39:34.373Z,11.10
2023-01-02T10:42:37.592Z,11.00
2023-01-02T10:45:40.903Z,11.00
2023-01-02T10:48:51.948Z,11.10
2023-01-02T10:52:07.478Z,11.00
2023-01-02T10:55:10.859Z,11.10
2023-01-02T10:58:21.387Z,11.10
2023-01-02T11:01:24.701Z,11.20
2023-01-02T11:04:31.253Z,11.10
2023-01-02T11:07:38.158Z,11.20
2023-01-02T11:10:41.359Z,11.20
2023-01-02T11:13:54.362Z,11.20
2023-01-02T11:17:05.415Z,11.10
2023-01-02T11:20:24.296Z,11.10
2023-01-02T11:23:27.856Z,11.10
2023-01-02T11:26:33.058Z,11.10
2023-01-02T11:29:37.575Z,10.70
2023-01-02T11:32:42.562Z,11.10
2023-01-02T11:35:50.306Z,11.10
2023-01-02T11:38:56.697Z,11.10
2023-01-02T11:42:28.524Z,11.10
2023-01-02T11:45:32.496Z,11.20
2023-01-02T11:48:37.030Z,11.10
2023-01-02T11:51:42.416Z,11.20
2023-01-02T11:54:53.775Z,11.10
2023-01-02T11:58:01.804Z,11.10
2023-01-02T12:01:12.991Z,11.10
2023-01-02T12:04:16.581Z,11.20
2023-01-02T12:07:35.950Z,11.30
2023-01-02T12:10:52.241Z,11.40
2023-01-02T12:14:06.776Z,11.50
2023-01-02T12:17:15.718Z,11.60
2023-01-02T12:20:33.505Z,11.60
2023-01-02T12:23:54.933Z,11.70
2023-01-02T12:27:05.225Z,11.70
2023-01-02T12:30:13.460Z,11.70
2023-01-02T12:33:39.243Z,11.70
2023-01-02T12:36:56.658Z,11.80
2023-01-02T12:40:28.688Z,11.70
2023-01-02T12:43:52.736Z,11.70
2023-01-02T12:47:16.901Z,11.70
2023-01-02T12:50:48.415Z,11.70
2023-01-02T12:54:20.200Z,11.70
2023-01-02T12:57:30.193Z,13.50
2023-01-02T13:00:50.547Z,11.80
2023-01-02T13:04:06.590Z,11.80
2023-01-02T13:07:17.510Z,11.80
2023-01-02T13:10:23.353Z,11.80
2023-01-02T13:13:38.537Z,11.80
2023-01-02T13:16:45.330Z,11.70
2023-01-02T13:19:55.328Z,11.70
2023-01-02T13:23:12.103Z,11.70
2023-01-02T13:26:19.116Z,11.70
2023-01-02T13:29:29.703Z,11.60
2023-01-02T13:32:33.998Z,11.60
2023-01-02T13:35:39.737Z,11.60
2023-01-02T13:38:46.498Z,11.40
2023-01-02T13:42:10.095Z,11.40
2023-01-02T13:45:21.470Z,11.30
2023-01-02T13:48:32.407Z,11.30
2023-01-02T13:51:38.086Z,11.40
2023-01-02T13:54:43.039Z,11.40
2023-01-02T13:57:46.417Z,11.50
2023-01-02T14:00:55.311Z,11.50
2023-01-02T14:04:34.389Z,11.50
2023-01-02T14:07:49.203Z,11.50
2023-01-02T14:10:55.271Z,11.50
2023-01-02T14:14:00.239Z,11.40
2023-01-02T14:17:15.466Z,11.50
2023-01-02T14:20:28.019Z,11.40
2023-01-02T14:23:36.123Z,11.30
2023-01-02T14:26:42.792Z,11.40
2023-01-02T14:29:53.211Z,11.30
2023-01-02T14:33:00.011Z,11.30
2023-01-02T14:36:07.719Z,11.20
2023-01-02T14:39:19.834Z,11.20
2023-01-02T14:42:46.568Z,11.10
2023-01-02T14:45:52.198Z,11.10
2023-01-02T14:49:01.407Z,10.90
2023-01-02T14:52:31.034Z,11.00
2023-01-02T14:55:42.023Z,11.00
2023-01-02T14:58:48.814Z,11.00
2023-01-02T15:01:56.089Z,10.90
2023-01-02T15:05:06.382Z,10.90
2023-01-02T15:08:12.374Z,11.00
2023-01-02T15:11:39.176Z,10.90
2023-01-02T15:14:44.181Z,10.70
2023-01-02T15:17:49.119Z,10.70
2023-01-02T15:20:55.615Z,10.60
2023-01-02T15:24:01.992Z,10.50
2023-01-02T15:27:21.805Z,10.60
2023-01-02T15:30:30.168Z,10.60
2023-01-02T15:33:36.416Z,10.60
2023-01-02T15:36:43.063Z,10.50
2023-01-02T15:39:56.312Z,10.50
2023-01-02T15:43:19.509Z,10.50
2023-01-02T15:46:23.289Z,10.60
2023-01-02T15:49:27.232Z,10.50
2023-01-02T15:52:33.519Z,10.70
2023-01-02T15:55:41.716Z,10.60
2023-01-02T15:58:51.047Z,10.60
2023-01-02T16:01:54.716Z,10.70
2023-01-02T16:05:09.613Z,10.70
2023-01-02T16:08:22.328Z,10.70
2023-01-02T16:11:26.891Z,10.90
2023-01-02T16:14:38.474Z,10.90
2023-01-02T16:17:46.735Z,10.80
2023-01-02T16:20:50.939Z,10.80
2023-01-02T16:23:56.821Z,10.80
2023-01-02T16:27:00.788Z,10.80
2023-01-02T16:30:18.040Z,10.60
2023-01-02T16:33:25.208Z,10.50
2023-01-02T16:36:29.377Z,10.40
2023-01-02T16:39:45.578Z,10.30
2023-01-02T16:42:52.186Z,10.30
2023-01-02T16:45:55.963Z,10.20
2023-01-02T16:49:04.934Z,10.30
2023-01-02T16:52:08.986Z,11.50
2023-01-02T16:55:18.937Z,10.20
2023-01-02T16:58:25.327Z,10.30
2023-01-02T17:01:28.704Z,10.30
2023-01-02T17:04:32.264Z,10.30
2023-01-02T17:07:35.657Z,10.40
2023-01-02T17:13:45.275Z,10.50
2023-01-02T17:16:48.674Z,10.20
2023-01-02T17:19:52.630Z,10.20
2023-01-02T17:22:56.258Z,10.20
2023-01-02T17:26:01.866Z,9.60
2023-01-02T17:29:05.986Z,10.00
2023-01-02T17:32:09.525Z,10.00
2023-01-02T17:35:15.954Z,8.20
2023-01-02T17:38:19.780Z,9.90
2023-01-02T17:41:24.730Z,9.90
2023-01-02T17:44:28.002Z,9.90
2023-01-02T17:47:59.481Z,9.80
2023-01-02T17:50:55.078Z,9.70
2023-01-02T17:53:58.357Z,9.60
2023-01-02T17:57:04.136Z,9.70
2023-01-02T18:00:10.182Z,9.60
2023-01-02T18:03:15.698Z,9.60
2023-01-02T18:06:20.568Z,9.60
2023-01-02T18:09:24.940Z,9.50
2023-01-02T18:12:30.009Z,9.40
2023-01-02T18:15:33.445Z,9.30
2023-01-02T18:18:38.819Z,9.40
2023-01-02T18:21:43.331Z,9.30
2023-01-02T18:24:48.474Z,9.40
2023-01-02T18:27:54.141Z,9.40
2023-01-02T18:31:02.312Z,9.40
2023-01-02T18:34:44.008Z,9.30
2023-01-02T18:37:42.336Z,9.30
2023-01-02T18:40:45.827Z,9.20
2023-01-02T18:43:55.151Z,10.00
2023-01-02T18:47:05.063Z,9.10
2023-01-02T18:50:24.293Z,9.90
2023-01-02T18:53:31.670Z,9.10
2023-01-02T18:56:37.144Z,9.00
2023-01-02T18:59:44.798Z,8.90
2023-01-02T19:02:57.703Z,8.90
2023-01-02T19:06:02.213Z,9.00
2023-01-02T19:09:14.067Z,9.00
2023-01-02T19:12:44.088Z,9.00
2023-01-02T19:15:54.874Z,9.00
2023-01-02T19:18:58.682Z,8.90
2023-01-02T19:22:02.711Z,8.90
2023-01-02T19:25:18.880Z,8.90
2023-01-02T19:28:25.757Z,8.80
2023-01-02T19:31:43.053Z,8.70
2023-01-02T19:34:48.014Z,8.70
2023-01-02T19:37:52.541Z,8.60
2023-01-02T19:40:56.305Z,8.60
2023-01-02T19:44:10.669Z,8.50
2023-01-02T19:47:16.076Z,8.60
2023-01-02T19:50:23.371Z,8.50
2023-01-02T19:53:26.951Z,8.60
2023-01-02T19:56:30.646Z,8.60
2023-01-02T19:59:38.532Z,8.50
2023-01-02T20:02:48.972Z,8.60
2023-01-02T20:05:52.627Z,8.50
2023-01-02T20:08:56.074Z,8.50
2023-01-02T20:12:19.445Z,8.40
2023-01-02T20:15:24.812Z,8.30
2023-01-02T20:18:29.730Z,8.30
2023-01-02T20:21:33.089Z,8.30
2023-01-02T20:24:36.950Z,8.30
2023-01-02T20:27:41.151Z,8.20
2023-01-02T20:30:44.662Z,8.20
2023-01-02T20:33:49.602Z,8.20
2023-01-02T20:36:53.892Z,8.20
2023-01-02T20:39:57.198Z,8.10
2023-01-02T20:43:00.468Z,8.10
2023-01-02T20:46:03.895Z,8.00
2023-01-02T20:49:09.894Z,8.00
2023-01-02T20:52:13.316Z,7.80
2023-01-02T20:55:17.267Z,7.80
2023-01-02T20:58:22.791Z,7.80
2023-01-02T21:01:26.668Z,8.00
2023-01-02T21:04:36.690Z,7.90
2023-01-02T21:07:40.984Z,7.80
2023-01-02T21:10:45.635Z,7.80
2023-01-02T21:13:48.960Z,7.70
2023-01-02T21:16:52.439Z,7.60
2023-01-02T21:19:57.179Z,7.60
2023-01-02T21:23:00.561Z,8.80
2023-01-02T21:26:04.592Z,7.60
2023-01-02T21:29:08.508Z,7.50
2023-01-02T21:32:12.172Z,7.40
2023-01-02T21:35:17.128Z,7.40
2023-01-02T21:38:22.801Z,7.40
2023-01-02T21:41:43.237Z,7.40
2023-01-02T21:44:48.404Z,7.40
2023-01-02T21:47:51.839Z,7.40
2023-01-02T21:50:56.928Z,7.50
2023-01-02T21:54:00.401Z,7.50
2023-01-02T21:57:06.048Z,7.40
2023-01-02T22:00:10.751Z,7.40
2023-01-02T22:03:14.226Z,7.40
2023-01-02T22:06:19.379Z,7.50
2023-01-02T22:09:22.631Z,7.50
2023-01-02T22:12:27.218Z,7.60
2023-01-02T22:15:30.911Z,7.50
2023-01-02T22:18:38.082Z,7.50
2023-01-02T22:21:43.142Z,7.50
2023-01-02T22:24:47.666Z,7.50
2023-01-02T22:27:50.887Z,7.50
2023-01-02T22:30:54.422Z,7.50
2023-01-02T22:33:58.311Z,7.40
2023-01-02T22:37:03.227Z,7.30
2023-01-02T22:40:07.176Z,7.30
2023-01-02T22:43:15.644Z,7.30
2023-01-02T22:46:25.067Z,7.30
2023-01-02T22:49:32.233Z,7.30
2023-01-02T22:52:37.127Z,7.30
2023-01-02T22:55:41.622Z,7.20
2023-01-02T22:58:45.417Z,7.20
2023-01-02T23:01:50.079Z,7.20
2023-01-02T23:04:53.424Z,7.20
2023-01-02T23:07:58.161Z,7.20
2023-01-02T23:11:01.432Z,7.30
2023-01-02T23:14:04.658Z,7.20
2023-01-02T23:17:25.116Z,7.20
2023-01-02T23:20:28.645Z,7.20
2023-01-02T23:23:33.233Z,7.20
2023-01-02T23:26:38.989Z,7.20
2023-01-02T23:29:42.775Z,7.20
2023-01-02T23:32:46.213Z,7.20
2023-01-02T23:35:49.679Z,7.20
2023-01-02T23:41:58.384Z,7.10
2023-01-02T23:45:01.645Z,7.10
2023-01-02T23:48:05.200Z,7.00
2023-01-02T23:51:08.567Z,6.90
2023-01-02T23:54:15.050Z,6.90
2023-01-02T23:57:18.399Z,6.80
